Time;durP1;ratioP1;P1;durP2;ratioP2;P2;SDS_P1;SDS_P2;PMS_P1;PMS_P2;Temp;Humidity;BMP_temperature;BMP_pressure;BME280_temperature;BME280_humidity;BME280_pressure;Samples;Min_cycle;Max_cycle;Signal;HPM_P1;HPM_P2
2023/10/08 00:01:42;;;;;;;70.45;6.15;;;;;;;-148.24;100.00;61531.34;4989587;28;20506;-54
2023/10/08 00:04:11;;;;;;;176.25;9.00;;;;;;;-148.24;100.00;61531.34;4988966;28;20030;-53
2023/10/08 00:06:37;;;;;;;99.72;6.30;;;;;;;-148.24;100.00;61531.34;4989169;28;20053;-55
2023/10/08 00:09:06;;;;;;;163.95;9.20;;;;;;;-148.24;100.00;61531.34;4989567;28;20029;-55
2023/10/08 00:11:34;;;;;;;224.85;10.50;;;;;;;-148.24;100.00;61531.34;4989222;28;20556;-54
2023/10/08 00:14:01;;;;;;;234.20;11.68;;;;;;;-148.24;100.00;61531.34;4989436;28;20038;-53
2023/10/08 00:16:28;;;;;;;217.20;10.88;;;;;;;-148.24;100.00;61531.34;4988782;28;20113;-53
2023/10/08 00:18:58;;;;;;;170.55;9.93;;;;;;;-148.24;100.00;61531.34;4990005;28;20309;-55
2023/10/08 00:21:27;;;;;;;181.20;10.10;;;;;;;-148.24;100.00;61531.34;4987933;28;20038;-56
2023/10/08 00:23:52;;;;;;;173.57;9.15;;;;;;;-148.24;100.00;61531.34;4988844;28;20065;-55
2023/10/08 00:26:27;;;;;;;89.70;6.65;;;;;;;-148.24;100.00;61531.34;4987705;28;20069;-56
2023/10/08 00:28:54;;;;;;;157.25;8.68;;;;;;;-148.24;100.00;61531.34;4987819;28;20030;-55
2023/10/08 00:31:23;;;;;;;189.80;9.63;;;;;;;-148.24;100.00;61531.34;4988503;28;20699;-56
2023/10/08 00:33:49;;;;;;;177.55;9.07;;;;;;;-148.24;100.00;61531.34;4987898;28;20138;-57
2023/10/08 00:36:18;;;;;;;98.68;6.97;;;;;;;-148.24;100.00;61531.34;4988789;28;20042;-54
2023/10/08 00:38:51;;;;;;;99.15;7.18;;;;;;;-148.24;100.00;61531.34;4991073;28;20038;-54
2023/10/08 00:41:21;;;;;;;93.80;7.13;;;;;;;-148.24;100.00;61531.34;4991330;28;20245;-55
2023/10/08 00:43:48;;;;;;;132.48;8.05;;;;;;;-148.24;100.00;61531.34;4990733;28;20018;-54
2023/10/08 00:46:30;;;;;;;178.35;9.52;;;;;;;-148.24;100.00;61531.34;4990634;28;20045;-54
2023/10/08 00:48:56;;;;;;;;;;;;;;;-148.24;100.00;61531.34;4992853;28;20044;-55
2023/10/08 00:54:05;;;;;;;124.10;7.85;;;;;;;-148.24;100.00;61531.34;4991726;28;20036;-54
2023/10/08 00:59:15;;;;;;;229.23;11.40;;;;;;;-148.24;100.00;61531.34;4989466;28;20041;-55
2023/10/08 01:01:45;;;;;;;131.05;8.30;;;;;;;-148.24;100.00;61531.34;4992062;28;20066;-55
2023/10/08 01:04:22;;;;;;;153.40;8.95;;;;;;;-148.24;100.00;61531.34;4989937;28;20517;-54
2023/10/08 01:06:54;;;;;;;128.48;8.00;;;;;;;-148.24;100.00;61531.34;4991142;28;20092;-55
2023/10/08 01:09:22;;;;;;;82.85;6.90;;;;;;;-148.24;100.00;61531.34;4990273;28;20025;-56
2023/10/08 01:12:15;;;;;;;159.90;9.07;;;;;;;-148.24;100.00;61531.34;4989162;28;20521;-55
2023/10/08 01:14:43;;;;;;;100.88;7.15;;;;;;;-148.24;100.00;61531.34;4990272;28;20080;-53
2023/10/08 01:17:14;;;;;;;157.23;8.85;;;;;;;-148.24;100.00;61531.34;4990212;28;20035;-54
2023/10/08 01:19:42;;;;;;;112.18;7.43;;;;;;;-148.24;100.00;61531.34;4991074;28;20406;-54
2023/10/08 01:22:08;;;;;;;134.90;7.70;;;;;;;-148.24;100.00;61531.34;4989240;28;20042;-56
2023/10/08 01:24:35;;;;;;;110.95;8.07;;;;;;;-148.24;100.00;61531.34;4990543;28;20023;-54
2023/10/08 01:27:04;;;;;;;142.50;8.65;;;;;;;-148.24;100.00;61531.34;4987978;28;20489;-53
2023/10/08 01:29:31;;;;;;;126.30;7.70;;;;;;;-148.24;100.00;61531.34;4990433;28;20099;-55
2023/10/08 01:31:57;;;;;;;108.95;7.00;;;;;;;-148.24;100.00;61531.34;4997071;28;20052;-53
2023/10/08 01:34:26;;;;;;;103.82;7.22;;;;;;;-148.24;100.00;61531.34;4989955;28;20410;-55
2023/10/08 01:36:52;;;;;;;104.43;7.13;;;;;;;-148.24;100.00;61531.34;4993105;28;20512;-53
2023/10/08 01:39:17;;;;;;;118.85;7.30;;;;;;;-148.24;100.00;61531.34;4987405;28;20029;-52
2023/10/08 01:41:44;;;;;;;149.35;8.63;;;;;;;-148.24;100.00;61531.34;4990350;28;20061;-54
2023/10/08 01:44:10;;;;;;;150.95;8.75;;;;;;;-148.24;100.00;61531.34;4988127;28;20033;-53
2023/10/08 01:46:36;;;;;;;126.55;7.85;;;;;;;-148.24;100.00;61531.34;4988059;28;20049;-56
2023/10/08 01:49:08;;;;;;;150.20;9.05;;;;;;;-148.24;100.00;61531.34;4991251;28;20476;-53
2023/10/08 01:51:38;;;;;;;112.53;7.38;;;;;;;-148.24;100.00;61531.34;4990138;28;20050;-55
2023/10/08 01:54:10;;;;;;;198.75;10.52;;;;;;;-148.24;100.00;61531.34;4987158;28;20022;-52
2023/10/08 01:56:43;;;;;;;158.15;8.57;;;;;;;-148.24;100.00;61531.34;4987256;28;20081;-54
2023/10/08 01:59:14;;;;;;;162.15;9.15;;;;;;;-148.24;100.00;61531.34;4987173;28;20033;-55
2023/10/08 02:01:45;;;;;;;146.23;8.65;;;;;;;-148.24;100.00;61531.34;4988447;28;20081;-54
2023/10/08 02:04:12;;;;;;;181.10;9.55;;;;;;;-148.24;100.00;61531.34;4989530;28;20234;-54
2023/10/08 02:06:39;;;;;;;106.60;7.05;;;;;;;-148.24;100.00;61531.34;4986601;28;20045;-53
2023/10/08 02:09:09;;;;;;;189.00;9.75;;;;;;;-148.24;100.00;61531.34;4986933;28;20029;-53
2023/10/08 02:11:46;;;;;;;114.97;7.53;;;;;;;-148.24;100.00;61531.34;4989401;28;20046;-55
2023/10/08 02:14:15;;;;;;;196.27;10.43;;;;;;;-148.24;100.00;61531.34;4986678;28;20032;-57
2023/10/08 02:16:40;;;;;;;110.75;7.10;;;;;;;-148.24;100.00;61531.34;4988865;28;20049;-53
2023/10/08 02:19:06;;;;;;;188.93;10.20;;;;;;;-148.24;100.00;61531.34;4987686;28;20373;-54
2023/10/08 02:21:33;;;;;;;170.85;9.13;;;;;;;-148.24;100.00;61531.34;4989639;28;20042;-56
2023/10/08 02:23:58;;;;;;;149.75;7.95;;;;;;;-148.24;100.00;61531.34;4989900;28;20032;-54
2023/10/08 02:26:24;;;;;;;145.45;8.00;;;;;;;-148.24;100.00;61531.34;4988233;28;20049;-57
2023/10/08 02:28:51;;;;;;;128.45;7.63;;;;;;;-148.24;100.00;61531.34;4986593;28;20030;-56
2023/10/08 02:31:18;;;;;;;131.75;8.30;;;;;;;-148.24;100.00;61531.34;4987495;28;20064;-55
2023/10/08 02:33:44;;;;;;;123.97;7.82;;;;;;;-148.24;100.00;61531.34;4986580;28;20064;-53
2023/10/08 02:36:09;;;;;;;171.07;9.18;;;;;;;-148.24;100.00;61531.34;4988666;28;20095;-56
2023/10/08 02:38:37;;;;;;;94.57;6.60;;;;;;;-148.24;100.00;61531.34;4991507;28;20737;-55
2023/10/08 02:41:06;;;;;;;168.27;8.93;;;;;;;-148.24;100.00;61531.34;4987678;28;20616;-56
2023/10/08 02:43:36;;;;;;;129.75;7.55;;;;;;;-148.24;100.00;61531.34;4990195;28;20095;-55
2023/10/08 02:46:06;;;;;;;143.43;8.18;;;;;;;-148.24;100.00;61531.34;4985103;28;20052;-55
2023/10/08 02:48:34;;;;;;;161.65;8.63;;;;;;;-148.24;100.00;61531.34;4989184;28;20083;-55
2023/10/08 02:51:07;;;;;;;148.80;7.63;;;;;;;-148.24;100.00;61531.34;4986940;28;20042;-55
2023/10/08 02:53:33;;;;;;;170.68;9.05;;;;;;;-148.24;100.00;61531.34;4988754;28;20034;-55
2023/10/08 02:55:58;;;;;;;147.65;8.10;;;;;;;-148.24;100.00;61531.34;4993827;28;20046;-55
2023/10/08 02:58:25;;;;;;;99.93;6.43;;;;;;;-148.24;100.00;61531.34;4987406;28;20490;-56
2023/10/08 03:00:53;;;;;;;139.68;7.78;;;;;;;-148.24;100.00;61531.34;4987485;28;20072;-55
2023/10/08 03:03:18;;;;;;;127.65;8.27;;;;;;;-148.24;100.00;61531.34;4988241;28;20136;-54
2023/10/08 03:05:49;;;;;;;106.07;6.65;;;;;;;-148.24;100.00;61531.34;4987576;28;20521;-54
2023/10/08 03:08:20;;;;;;;183.75;9.57;;;;;;;-148.24;100.00;61531.34;4988652;28;20472;-55
2023/10/08 03:10:48;;;;;;;119.63;6.80;;;;;;;-148.24;100.00;61531.34;4987738;28;20053;-54
2023/10/08 03:13:16;;;;;;;250.30;11.30;;;;;;;-148.24;100.00;61531.34;4987208;28;20041;-55
2023/10/08 03:18:26;;;;;;;195.32;9.00;;;;;;;-148.24;100.00;61531.34;4987745;28;20061;-56
2023/10/08 03:20:51;;;;;;;137.25;7.07;;;;;;;-148.24;100.00;61531.34;4989015;28;20081;-55
2023/10/08 03:23:25;;;;;;;204.63;10.48;;;;;;;-148.24;100.00;61531.34;4986859;28;20034;-56
2023/10/08 03:26:02;;;;;;;179.63;8.93;;;;;;;-148.24;100.00;61531.34;4987143;28;20088;-55
2023/10/08 03:28:29;;;;;;;133.38;7.97;;;;;;;-148.24;100.00;61531.34;4991136;28;20117;-55
2023/10/08 03:31:04;;;;;;;183.98;8.85;;;;;;;-148.24;100.00;61531.34;4988656;28;20085;-53
2023/10/08 03:33:37;;;;;;;143.00;8.15;;;;;;;-148.24;100.00;61531.34;4993192;28;20210;-53
2023/10/08 03:36:14;;;;;;;142.32;8.02;;;;;;;-148.24;100.00;61531.34;4990773;28;20088;-55
2023/10/08 03:38:50;;;;;;;131.68;7.53;;;;;;;-148.24;100.00;61531.34;4990868;28;20018;-55
2023/10/08 03:41:29;;;;;;;198.73;9.95;;;;;;;-148.24;100.00;61531.34;4991102;28;20268;-53
2023/10/08 03:44:01;;;;;;;131.38;7.07;;;;;;;-148.24;100.00;61531.34;4991461;28;20021;-55
2023/10/08 03:46:39;;;;;;;143.07;7.88;;;;;;;-148.24;100.00;61531.34;4987720;28;20545;-55
2023/10/08 03:49:14;;;;;;;135.05;7.43;;;;;;;-148.24;100.00;61531.34;4990024;28;20386;-54
2023/10/08 03:51:40;;;;;;;198.02;9.10;;;;;;;-148.24;100.00;61531.34;4989065;28;20133;-57
2023/10/08 03:54:18;;;;;;;137.82;7.82;;;;;;;-148.24;100.00;61531.34;4988641;28;20333;-55
2023/10/08 03:56:45;;;;;;;133.85;7.82;;;;;;;-148.24;100.00;61531.34;4989476;28;20072;-56
2023/10/08 03:59:29;;;;;;;176.18;9.75;;;;;;;-148.24;100.00;61531.34;4991787;28;20045;-55
2023/10/08 04:02:10;;;;;;;155.52;8.75;;;;;;;-148.24;100.00;61531.34;4991536;28;20057;-55
2023/10/08 04:07:28;;;;;;;233.15;11.68;;;;;;;-148.24;100.00;61531.34;4990500;28;20275;-55
2023/10/08 04:12:35;;;;;;;160.25;8.23;;;;;;;-148.24;100.00;61531.34;4990408;28;20583;-56
2023/10/08 04:15:07;;;;;;;141.00;7.80;;;;;;;-148.24;100.00;61531.34;4990514;28;20038;-57
2023/10/08 04:17:43;;;;;;;102.47;6.60;;;;;;;-148.24;100.00;61531.34;4990384;28;20042;-53
2023/10/08 04:20:32;;;;;;;147.15;8.40;;;;;;;-148.24;100.00;61531.34;4992556;28;20108;-55
2023/10/08 04:22:55;;;;;;;157.10;8.40;;;;;;;-148.24;100.00;61531.34;4992566;28;20153;-53
2023/10/08 04:25:20;;;;;;;179.02;9.75;;;;;;;-148.24;100.00;61531.34;4988124;28;20403;-54
2023/10/08 04:27:49;;;;;;;117.47;6.63;;;;;;;-148.24;100.00;61531.34;4992879;28;20032;-55
2023/10/08 04:30:15;;;;;;;199.90;10.60;;;;;;;-148.24;100.00;61531.34;4988331;28;20309;-55
2023/10/08 04:32:41;;;;;;;74.88;5.68;;;;;;;-148.24;100.00;61531.34;4989618;28;20038;-56
2023/10/08 04:35:08;;;;;;;97.85;6.70;;;;;;;-148.24;100.00;61531.34;4988835;28;20030;-55
2023/10/08 04:37:34;;;;;;;113.75;6.97;;;;;;;-148.24;100.00;61531.34;4992002;28;20595;-55
2023/10/08 04:39:59;;;;;;;130.27;7.53;;;;;;;-148.24;100.00;61531.34;4990779;28;20112;-55
2023/10/08 04:42:27;;;;;;;159.73;9.05;;;;;;;-148.24;100.00;61531.34;4990360;28;20719;-56
2023/10/08 04:44:54;;;;;;;125.22;7.32;;;;;;;-148.24;100.00;61531.34;4991649;28;20168;-56
2023/10/08 04:47:31;;;;;;;186.00;9.98;;;;;;;-148.24;100.00;61531.34;4988932;28;20476;-55
2023/10/08 04:49:57;;;;;;;145.55;7.85;;;;;;;-148.24;100.00;61531.34;4989758;28;20046;-57
2023/10/08 04:52:25;;;;;;;183.77;9.68;;;;;;;-148.24;100.00;61531.34;4989192;28;20395;-56
2023/10/08 04:54:54;;;;;;;137.60;7.72;;;;;;;-148.24;100.00;61531.34;4989298;28;20084;-54
2023/10/08 04:57:25;;;;;;;200.20;10.18;;;;;;;-148.24;100.00;61531.34;4988168;28;20486;-56
2023/10/08 04:59:51;;;;;;;110.90;6.95;;;;;;;-148.24;100.00;61531.34;4991170;28;20119;-55
2023/10/08 05:02:20;;;;;;;189.70;9.82;;;;;;;-148.24;100.00;61531.34;4991389;28;20210;-55
2023/10/08 05:15:41;;;;;;;105.80;7.30;;;;;;;-148.24;100.00;61531.34;4990558;28;20049;-54
2023/10/08 05:18:19;;;;;;;155.75;8.85;;;;;;;-148.24;100.00;61531.34;4990744;28;20029;-55
2023/10/08 05:23:32;;;;;;;;;;;;;;;;;;;;;
2023/10/08 05:31:46;;;;;;;215.30;11.55;;;;;;;-148.24;100.00;61531.34;4988917;28;20549;-55
2023/10/08 05:34:32;;;;;;;164.23;9.55;;;;;;;-148.24;100.00;61531.34;4990421;28;20049;-56
2023/10/08 05:39:40;;;;;;;128.23;7.68;;;;;;;-148.24;100.00;61531.34;4990207;28;20048;-58
2023/10/08 05:42:19;;;;;;;133.57;7.47;;;;;;;-148.24;100.00;61531.34;4990059;28;20044;-55
2023/10/08 05:44:50;;;;;;;108.03;6.35;;;;;;;-148.24;100.00;61531.34;4987723;28;20524;-56
2023/10/08 05:50:09;;;;;;;115.78;7.32;;;;;;;-148.24;100.00;61531.34;4989250;28;20284;-56
2023/10/08 05:52:50;;;;;;;127.20;7.10;;;;;;;-148.24;100.00;61531.34;4989617;28;20037;-56
2023/10/08 05:55:25;;;;;;;239.85;11.77;;;;;;;-148.24;100.00;61531.34;4986371;28;20061;-56
2023/10/08 05:58:13;;;;;;;160.38;8.00;;;;;;;-148.24;100.00;61531.34;4989256;28;20022;-56
2023/10/08 06:03:35;;;;;;;219.25;11.48;;;;;;;-148.24;100.00;61531.34;4987501;28;20027;-57
2023/10/08 06:09:06;;;;;;;149.57;8.30;;;;;;;-148.24;100.00;61531.34;4987676;28;20382;-57
2023/10/08 06:14:28;;;;;;;149.55;8.82;;;;;;;-148.24;100.00;61531.34;4987509;28;20771;-54
2023/10/08 06:17:13;;;;;;;108.30;8.23;;;;;;;-148.24;100.00;61531.34;4987504;28;20037;-57
2023/10/08 06:19:39;;;;;;;130.45;8.35;;;;;;;-148.24;100.00;61531.34;4986181;28;20398;-56
2023/10/08 06:22:04;;;;;;;154.25;8.45;;;;;;;-148.24;100.00;61531.34;4987747;28;20073;-56
2023/10/08 06:24:32;;;;;;;220.85;11.75;;;;;;;-148.24;100.00;61531.34;4986263;28;20394;-55
2023/10/08 06:27:04;;;;;;;136.02;8.43;;;;;;;-148.24;100.00;61531.34;4987213;28;20038;-56
2023/10/08 06:29:32;;;;;;;223.68;10.60;;;;;;;-148.24;100.00;61531.34;4984954;28;20398;-55
2023/10/08 06:32:02;;;;;;;159.35;9.27;;;;;;;-148.24;100.00;61531.34;4984828;28;20065;-56
2023/10/08 06:34:28;;;;;;;256.08;12.73;;;;;;;-148.24;100.00;61531.34;4986789;28;20073;-55
2023/10/08 06:36:56;;;;;;;187.18;9.77;;;;;;;-148.24;100.00;61531.34;4987481;28;20038;-53
2023/10/08 06:39:32;;;;;;;205.57;10.50;;;;;;;-148.24;100.00;61531.34;4987616;28;20037;-57
2023/10/08 06:41:59;;;;;;;166.82;9.57;;;;;;;-148.24;100.00;61531.34;4988353;28;20069;-57
2023/10/08 06:44:26;;;;;;;203.55;11.10;;;;;;;-148.24;100.00;61531.34;4988348;28;20117;-55
2023/10/08 06:46:54;;;;;;;112.38;7.90;;;;;;;-148.24;100.00;61531.34;4985820;28;20322;-56
2023/10/08 06:49:23;;;;;;;231.18;13.18;;;;;;;-148.24;100.00;61531.34;4987033;28;20560;-52
2023/10/08 06:51:50;;;;;;;137.43;8.35;;;;;;;-148.24;100.00;61531.34;4987412;28;20268;-55
2023/10/08 06:54:19;;;;;;;151.52;9.02;;;;;;;-148.24;100.00;61531.34;4986224;28;20514;-55
2023/10/08 06:56:52;;;;;;;124.88;8.00;;;;;;;-148.24;100.00;61531.34;4984567;28;20070;-54
2023/10/08 06:59:18;;;;;;;100.63;7.13;;;;;;;-148.24;100.00;61531.34;4988755;28;20385;-56
2023/10/08 07:01:47;;;;;;;158.73;8.45;;;;;;;-148.24;100.00;61531.34;4990412;28;20042;-55
2023/10/08 07:04:13;;;;;;;125.75;7.95;;;;;;;-148.24;100.00;61531.34;4990810;28;20066;-55
2023/10/08 07:06:40;;;;;;;111.20;7.13;;;;;;;-148.24;100.00;61531.34;4989269;28;20034;-55
2023/10/08 07:09:06;;;;;;;163.18;11.18;;;;;;;-148.24;100.00;61531.34;4992094;28;20029;-56
2023/10/08 07:11:39;;;;;;;249.02;12.65;;;;;;;-148.24;100.00;61531.34;4989451;28;20048;-57
2023/10/08 07:14:05;;;;;;;143.73;8.18;;;;;;;-148.24;100.00;61531.34;4992399;28;20647;-54
2023/10/08 07:16:34;;;;;;;151.30;9.18;;;;;;;-148.24;100.00;61531.34;4988494;28;20137;-54
2023/10/08 07:19:05;;;;;;;114.82;7.70;;;;;;;-148.24;100.00;61531.34;4991609;28;20026;-56
2023/10/08 07:21:53;;;;;;;281.98;13.70;;;;;;;-148.24;100.00;61531.34;4991942;28;20034;-54
2023/10/08 07:24:21;;;;;;;153.90;9.60;;;;;;;-148.24;100.00;61531.34;4990837;28;20037;-55
2023/10/08 07:26:47;;;;;;;159.07;8.30;;;;;;;-148.24;100.00;61531.34;4989949;28;20051;-56
2023/10/08 07:29:17;;;;;;;106.88;7.03;;;;;;;-148.24;100.00;61531.34;4990230;28;20100;-56
2023/10/08 07:31:48;;;;;;;124.90;7.05;;;;;;;-148.24;100.00;61531.34;4989610;28;20049;-54
2023/10/08 07:34:25;;;;;;;141.43;7.82;;;;;;;-148.24;100.00;61531.34;4990190;28;20109;-56
2023/10/08 07:36:52;;;;;;;114.18;7.13;;;;;;;-148.24;100.00;61531.34;4989242;28;20508;-56
2023/10/08 07:39:45;;;;;;;122.25;7.60;;;;;;;-148.24;100.00;61531.34;4988780;28;20425;-57
2023/10/08 07:42:08;;;;;;;141.80;8.38;;;;;;;-148.24;100.00;61531.34;5001055;28;20038;-56
2023/10/08 07:44:38;;;;;;;227.38;12.52;;;;;;;-148.24;100.00;61531.34;4989722;28;20069;-57
2023/10/08 07:47:05;;;;;;;100.28;7.03;;;;;;;-148.24;100.00;61531.34;4992532;28;20054;-57
2023/10/08 07:49:33;;;;;;;227.32;11.77;;;;;;;-148.24;100.00;61531.34;4987911;28;20084;-57
2023/10/08 07:51:59;;;;;;;115.95;7.20;;;;;;;-148.24;100.00;61531.34;4990591;28;20043;-56
2023/10/08 07:54:27;;;;;;;121.40;7.80;;;;;;;-148.24;100.00;61531.34;4990533;28;20034;-57
2023/10/08 07:57:08;;;;;;;173.77;9.02;;;;;;;-148.24;100.00;61531.34;4989344;28;20095;-55
2023/10/08 07:59:56;;;;;;;237.75;12.68;;;;;;;-148.24;100.00;61531.34;4988983;28;20026;-55
2023/10/08 08:02:23;;;;;;;142.48;8.18;;;;;;;-148.24;100.00;61531.34;4988254;28;20053;-56
2023/10/08 08:04:52;;;;;;;119.57;7.55;;;;;;;-148.24;100.00;61531.34;4990111;28;20022;-55
2023/10/08 08:07:19;;;;;;;147.90;8.23;;;;;;;-148.24;100.00;61531.34;4989496;28;20034;-56
2023/10/08 08:09:58;;;;;;;131.48;7.47;;;;;;;-148.24;100.00;61531.34;4990579;28;20125;-55
2023/10/08 08:12:28;;;;;;;238.73;12.38;;;;;;;-148.24;100.00;61531.34;4988566;28;20513;-56
2023/10/08 08:14:54;;;;;;;111.07;6.93;;;;;;;-148.24;100.00;61531.34;4989922;28;20030;-55
2023/10/08 08:17:22;;;;;;;100.72;6.65;;;;;;;-148.24;100.00;61531.34;4991744;28;20530;-56
2023/10/08 08:19:52;;;;;;;142.18;7.82;;;;;;;-148.24;100.00;61531.34;4990342;28;20053;-55
2023/10/08 08:22:22;;;;;;;128.00;7.20;;;;;;;-148.24;100.00;61531.34;4989943;28;20422;-56
2023/10/08 08:27:53;;;;;;;154.07;8.43;;;;;;;-148.24;100.00;61531.34;4958291;28;20059;-57
2023/10/08 08:30:19;;;;;;;123.07;7.35;;;;;;;-148.24;100.00;61531.34;4983315;28;20045;-55
2023/10/08 08:32:49;;;;;;;58.22;5.07;;;;;;;-148.24;100.00;61531.34;4988443;28;20268;-55
2023/10/08 08:35:17;;;;;;;204.05;60.08;;;;;;;-148.24;100.00;61531.34;4990953;28;20044;-55
2023/10/08 08:37:46;;;;;;;131.50;20.63;;;;;;;-148.24;100.00;61531.34;4990078;28;20026;-56
2023/10/08 08:40:17;;;;;;;179.57;94.60;;;;;;;-148.24;100.00;61531.34;4990819;28;20097;-55
2023/10/08 08:42:45;;;;;;;185.27;66.40;;;;;;;-148.24;100.00;61531.34;4988332;28;20510;-56
2023/10/08 08:45:13;;;;;;;108.68;8.77;;;;;;;-148.24;100.00;61531.34;4990453;28;20032;-56
2023/10/08 08:47:42;;;;;;;250.38;86.15;;;;;;;-148.24;100.00;61531.34;4991393;28;20026;-54
2023/10/08 08:50:08;;;;;;;205.40;115.15;;;;;;;-148.24;100.00;61531.34;4993008;28;20037;-56
2023/10/08 08:52:40;;;;;;;317.52;121.60;;;;;;;-148.24;100.00;61531.34;4991154;28;20366;-57
2023/10/08 08:55:13;;;;;;;;;;;;;;;-148.24;100.00;61531.34;4989818;28;20168;-55
2023/10/08 08:57:39;;;;;;;136.85;7.43;;;;;;;-148.24;100.00;61531.34;4992582;28;20000;-54
2023/10/08 09:00:10;;;;;;;110.00;10.80;;;;;;;-148.24;100.00;61531.34;4988758;28;20029;-54
2023/10/08 09:02:37;;;;;;;257.10;34.45;;;;;;;-148.24;100.00;61531.34;4988639;28;20036;-55
2023/10/08 09:05:13;;;;;;;140.82;12.15;;;;;;;-148.24;100.00;61531.34;4991163;28;20080;-56
2023/10/08 09:08:11;;;;;;;206.90;10.40;;;;;;;-148.24;100.00;61531.34;4989094;28;20038;-55
2023/10/08 09:10:50;;;;;;;205.30;10.95;;;;;;;-148.24;100.00;61531.34;4988181;28;20070;-54
2023/10/08 09:13:21;;;;;;;143.50;7.43;;;;;;;-148.24;100.00;61531.34;4991461;28;20072;-56
2023/10/08 09:15:46;;;;;;;96.82;10.05;;;;;;;-148.24;100.00;61531.34;4989242;28;20162;-55
2023/10/08 09:18:14;;;;;;;92.13;5.82;;;;;;;-148.24;100.00;61531.34;4990565;28;20441;-57
2023/10/08 09:20:43;;;;;;;191.13;10.15;;;;;;;-148.24;100.00;61531.34;4988344;28;20370;-56
2023/10/08 09:23:11;;;;;;;191.73;9.85;;;;;;;-148.24;100.00;61531.34;4989291;28;20414;-56
2023/10/08 09:25:39;;;;;;;127.65;9.48;;;;;;;-148.24;100.00;61531.34;4986421;28;20049;-54
2023/10/08 09:28:07;;;;;;;98.13;6.80;;;;;;;-148.24;100.00;61531.34;4997044;28;20088;-54
2023/10/08 09:30:37;;;;;;;181.65;9.93;;;;;;;-148.24;100.00;61531.34;4988333;28;20542;-54
2023/10/08 09:33:05;;;;;;;115.28;7.03;;;;;;;-148.24;100.00;61531.34;4991274;28;20053;-54
2023/10/08 09:35:32;;;;;;;181.18;9.18;;;;;;;-148.24;100.00;61531.34;4988668;28;20406;-54
2023/10/08 09:37:58;;;;;;;120.38;7.28;;;;;;;-148.24;100.00;61531.34;4987833;28;20053;-55
2023/10/08 09:40:25;;;;;;;105.70;6.60;;;;;;;-148.24;100.00;61531.34;4987629;28;20112;-53
2023/10/08 09:42:52;;;;;;;144.80;8.35;;;;;;;-148.24;100.00;61531.34;4989240;28;20042;-55
2023/10/08 09:45:17;;;;;;;87.22;6.65;;;;;;;-148.24;100.00;61531.34;4990199;28;20025;-54
2023/10/08 09:47:54;;;;;;;91.20;6.68;;;;;;;-148.24;100.00;61531.34;4988901;28;22151;-53
2023/10/08 09:50:27;;;;;;;116.47;7.88;;;;;;;-148.24;100.00;61531.34;4990391;28;20124;-53
2023/10/08 09:53:07;;;;;;;101.63;6.55;;;;;;;-148.24;100.00;61531.34;4992072;28;20054;-55
2023/10/08 09:55:33;;;;;;;144.57;8.05;;;;;;;-148.24;100.00;61531.34;4990300;28;20042;-53
2023/10/08 09:57:59;;;;;;;97.78;9.18;;;;;;;-148.24;100.00;61531.34;4990721;28;20041;-54
2023/10/08 10:00:33;;;;;;;145.10;7.93;;;;;;;-148.24;100.00;61531.34;4988029;28;20041;-53
2023/10/08 10:03:02;;;;;;;116.22;9.57;;;;;;;-148.24;100.00;61531.34;4988079;28;20026;-54
2023/10/08 10:05:37;;;;;;;186.23;10.52;;;;;;;-148.24;100.00;61531.34;4987163;28;20129;-55
2023/10/08 10:08:09;;;;;;;229.60;138.50;;;;;;;-148.24;100.00;61531.34;4989771;28;20041;-53
2023/10/08 10:10:38;;;;;;;;;;;;;;;-148.24;100.00;61531.34;4987792;28;20629;-53
2023/10/08 10:13:11;;;;;;;162.07;8.55;;;;;;;-148.24;100.00;61531.34;4990416;28;19914;-54
2023/10/08 10:15:37;;;;;;;165.35;9.05;;;;;;;-148.24;100.00;61531.34;4987775;28;20042;-56
2023/10/08 10:18:31;;;;;;;101.80;6.22;;;;;;;-148.24;100.00;61531.34;4988596;28;20041;-54
2023/10/08 10:21:29;;;;;;;119.32;6.75;;;;;;;-148.24;100.00;61531.34;4987681;28;20667;-54
2023/10/08 10:23:56;;;;;;;84.60;5.72;;;;;;;-148.24;100.00;61531.34;4988735;28;20376;-53
2023/10/08 10:26:35;;;;;;;137.98;8.57;;;;;;;-148.24;100.00;61531.34;4988967;28;20042;-55
2023/10/08 10:29:15;;;;;;;92.50;6.35;;;;;;;-148.24;100.00;61531.34;4990852;28;20053;-56
2023/10/08 10:31:44;;;;;;;201.07;11.23;;;;;;;-148.24;100.00;61531.34;4984700;28;20045;-56
2023/10/08 10:34:12;;;;;;;101.20;11.00;;;;;;;-148.24;100.00;61531.34;4990759;28;20488;-55
2023/10/08 10:36:41;;;;;;;197.73;10.02;;;;;;;-148.24;100.00;61531.34;4986588;28;20041;-57
2023/10/08 10:39:16;;;;;;;136.25;40.40;;;;;;;-148.24;100.00;61531.34;4989115;28;20405;-55
2023/10/08 10:43:20;;;;;;;429.33;44.70;;;;;;;22.70;60.51;98693.25;5028080;28;20412;-55
2023/10/08 10:45:47;;;;;;;213.38;14.25;;;;;;;22.28;62.60;98702.88;5021246;28;20041;-56
2023/10/08 10:51:08;;;;;;;407.17;179.43;;;;;;;22.08;65.25;98693.97;5021075;28;20048;-55
2023/10/08 10:53:48;;;;;;;200.32;10.90;;;;;;;22.04;66.81;98684.41;5023252;28;20024;-56
2023/10/08 10:56:18;;;;;;;96.03;14.50;;;;;;;21.87;68.63;98685.91;5024486;28;20053;-54
2023/10/08 10:58:53;;;;;;;183.70;17.00;;;;;;;21.56;70.33;98693.19;5023365;28;20505;-54
2023/10/08 11:01:25;;;;;;;151.75;28.92;;;;;;;21.50;73.49;98706.66;5023869;28;20585;-54
2023/10/08 11:03:51;;;;;;;163.73;8.60;;;;;;;21.91;70.15;98706.06;5021964;28;20053;-55
2023/10/08 11:06:22;;;;;;;97.70;9.05;;;;;;;21.92;70.14;98713.06;5021629;28;20026;-56
2023/10/08 11:08:52;;;;;;;182.00;13.95;;;;;;;22.26;67.77;98710.88;5021934;28;20033;-56
2023/10/08 11:11:18;;;;;;;127.07;65.72;;;;;;;22.61;64.71;98716.56;5024706;28;20037;-55
2023/10/08 11:13:51;;;;;;;191.27;15.40;;;;;;;22.47;64.81;98725.06;5022328;28;20394;-57
2023/10/08 11:16:19;;;;;;;150.77;9.48;;;;;;;22.79;64.43;98723.84;5023809;28;20507;-57
2023/10/08 11:18:57;;;;;;;262.52;93.82;;;;;;;23.64;60.57;98716.66;5026717;28;20025;-56
2023/10/08 11:21:24;;;;;;;170.27;73.20;;;;;;;-148.24;100.00;61531.34;5023604;28;20088;-56
2023/10/08 11:23:55;;;;;;;174.77;60.42;;;;;;;-148.24;100.00;61531.34;5021443;28;20060;-55
2023/10/08 11:26:31;;;;;;;96.30;6.85;;;;;;;-148.24;100.00;61531.34;5023570;28;20029;-57
2023/10/08 11:29:00;;;;;;;91.18;7.45;;;;;;;-148.24;100.00;61531.34;5022774;28;20041;-57
2023/10/08 11:31:27;;;;;;;93.05;14.60;;;;;;;-148.24;100.00;61531.34;5022908;28;20041;-57
2023/10/08 11:33:59;;;;;;;128.52;13.18;;;;;;;-148.24;100.00;61531.34;5024373;28;20474;-55
2023/10/08 11:36:27;;;;;;;146.80;15.52;;;;;;;-148.24;100.00;61531.34;5022545;28;20069;-56
2023/10/08 11:39:07;;;;;;;237.70;85.47;;;;;;;-148.24;100.00;61531.34;5023046;28;20032;-57
2023/10/08 11:41:44;;;;;;;192.90;80.45;;;;;;;-148.24;100.00;61531.34;5020219;28;20073;-55
2023/10/08 11:44:13;;;;;;;370.08;256.17;;;;;;;-148.24;100.00;61531.34;5022324;28;20397;-56
2023/10/08 11:46:38;;;;;;;284.38;106.25;;;;;;;-148.24;100.00;61531.34;5021359;28;20065;-55
2023/10/08 11:49:05;;;;;;;325.55;196.35;;;;;;;-148.24;100.00;61531.34;5023570;28;20128;-55
2023/10/08 11:51:32;;;;;;;163.07;13.85;;;;;;;-148.24;100.00;61531.34;5023049;28;20045;-57
2023/10/08 11:54:00;;;;;;;106.03;6.75;;;;;;;-148.24;100.00;61531.34;5014234;28;20408;-58
2023/10/08 11:56:26;;;;;;;258.60;194.18;;;;;;;-148.24;100.00;61531.34;5008744;28;20037;-55
2023/10/08 11:58:52;;;;;;;134.70;7.32;;;;;;;-148.24;100.00;61531.34;5008282;28;21330;-57
2023/10/08 12:01:18;;;;;;;128.13;41.53;;;;;;;-148.24;100.00;61531.34;5009116;28;20433;-55
2023/10/08 12:03:45;;;;;;;287.77;29.27;;;;;;;-148.24;100.00;61531.34;5006887;28;20206;-55
2023/10/08 12:06:18;;;;;;;127.65;6.82;;;;;;;-148.24;100.00;61531.34;5008511;28;20042;-56